Řízení letového provozu České republiky
Letiste: LKPD Aktualizace: 15.10.2019 23:00:32  UTC
 METAR LKPD 15.10. 23:00 ...
METAR LKPD 152300Z VRB02KT 8000 NSC 11/10 Q1007 RMK BLU=
 TAF LKPD 15.10. 17:00 ...
TAF LKPD 151700Z 1518/1618 12005KT 9999 SCT025      BECMG 1603/1604 25010KT BKN025      TEMPO 1605/1612 25016KT      TEMPO 1607/1612 8000 RA BKN017 OVC040      BECMG 1613/1615 22006KT CAVOK=